createdAt,value
2022-08-30T00:01:07.635Z,5.00
2022-08-30T00:03:46.428Z,7.25
2022-08-30T00:06:15.930Z,6.50
2022-08-30T00:08:43.415Z,5.75
2022-08-30T00:11:12.887Z,5.00
2022-08-30T00:13:41.610Z,7.50
2022-08-30T00:16:09.312Z,5.00
2022-08-30T00:18:36.908Z,11.50
2022-08-30T00:21:04.875Z,7.25
2022-08-30T00:23:32.492Z,4.75
2022-08-30T00:25:59.709Z,5.50
2022-08-30T00:28:26.386Z,8.00
2022-08-30T00:30:53.256Z,7.75
2022-08-30T00:33:19.940Z,6.25
2022-08-30T00:35:46.600Z,5.75
2022-08-30T00:38:14.179Z,6.00
2022-08-30T00:40:44.390Z,6.25
2022-08-30T00:43:19.875Z,6.50
2022-08-30T00:45:47.446Z,7.50
2022-08-30T00:48:14.157Z,9.00
2022-08-30T00:50:45.414Z,6.25
2022-08-30T00:53:20.276Z,4.00
2022-08-30T00:55:49.152Z,5.25
2022-08-30T00:58:22.593Z,6.50
2022-08-30T01:00:51.873Z,5.00
2022-08-30T01:03:18.605Z,5.25
2022-08-30T01:05:47.462Z,6.50
2022-08-30T01:08:15.672Z,7.25
2022-08-30T01:10:42.775Z,6.00
2022-08-30T01:13:11.050Z,7.25
2022-08-30T01:15:37.823Z,7.00
2022-08-30T01:18:05.650Z,7.25
2022-08-30T01:20:50.863Z,6.50
2022-08-30T01:23:21.262Z,5.00
2022-08-30T01:25:50.632Z,7.00
2022-08-30T01:28:22.844Z,5.75
2022-08-30T01:30:49.897Z,8.50
2022-08-30T01:33:17.544Z,7.25
2022-08-30T01:35:50.340Z,7.75
2022-08-30T01:38:19.800Z,8.00
2022-08-30T01:40:47.019Z,7.50
2022-08-30T01:43:15.479Z,9.00
2022-08-30T01:45:42.438Z,9.00
2022-08-30T01:48:13.012Z,6.75
2022-08-30T01:50:41.641Z,10.00
2022-08-30T01:53:13.290Z,8.25
2022-08-30T01:55:40.652Z,8.00
2022-08-30T01:58:07.341Z,12.75
2022-08-30T02:00:34.056Z,8.25
2022-08-30T02:03:00.869Z,10.75
2022-08-30T02:05:27.576Z,11.50
2022-08-30T02:07:54.269Z,10.00
2022-08-30T02:10:21.267Z,10.00
2022-08-30T02:12:47.992Z,14.50
2022-08-30T02:15:14.628Z,8.75
2022-08-30T02:17:42.488Z,10.25
2022-08-30T02:20:10.052Z,10.75
2022-08-30T02:22:37.675Z,12.25
2022-08-30T02:25:12.186Z,13.50
2022-08-30T02:27:48.250Z,13.75
2022-08-30T02:30:15.011Z,14.75
2022-08-30T02:32:41.662Z,15.25
2022-08-30T02:35:08.727Z,17.75
2022-08-30T02:37:35.618Z,16.50
2022-08-30T02:40:05.008Z,15.50
2022-08-30T02:42:31.912Z,16.00
2022-08-30T02:44:58.716Z,14.25
2022-08-30T02:47:25.392Z,14.50
2022-08-30T02:49:52.345Z,14.25
2022-08-30T02:52:19.943Z,14.25
2022-08-30T02:54:55.063Z,15.50
2022-08-30T02:57:21.710Z,15.25
2022-08-30T02:59:49.011Z,14.50
2022-08-30T03:02:16.302Z,15.25
2022-08-30T03:04:45.054Z,16.25
2022-08-30T03:07:12.887Z,15.50
2022-08-30T03:09:39.832Z,12.25
2022-08-30T03:12:07.885Z,15.00
2022-08-30T03:14:38.804Z,14.75
2022-08-30T03:17:12.850Z,17.75
2022-08-30T03:19:42.856Z,12.50
2022-08-30T03:22:09.509Z,14.25
2022-08-30T03:24:36.600Z,14.00
2022-08-30T03:27:03.769Z,14.00
2022-08-30T03:29:30.609Z,15.00
2022-08-30T03:31:57.927Z,12.50
2022-08-30T03:34:26.043Z,19.25
2022-08-30T03:36:55.183Z,12.50
2022-08-30T03:39:23.395Z,12.75
2022-08-30T03:41:50.559Z,14.25
2022-08-30T03:44:18.915Z,14.75
2022-08-30T03:46:48.619Z,13.25
2022-08-30T03:49:15.575Z,14.75
2022-08-30T03:51:42.498Z,15.25
2022-08-30T03:54:10.040Z,14.75
2022-08-30T03:56:37.185Z,13.25
2022-08-30T03:59:04.181Z,13.75
2022-08-30T04:01:30.825Z,19.00
2022-08-30T04:03:57.728Z,19.00
2022-08-30T04:06:24.974Z,15.00
2022-08-30T04:08:51.924Z,16.75
2022-08-30T04:11:18.600Z,15.00
2022-08-30T04:13:45.199Z,15.00
2022-08-30T04:16:11.975Z,15.50
2022-08-30T04:18:38.988Z,16.75
2022-08-30T04:21:06.607Z,16.25
2022-08-30T04:23:33.473Z,14.25
2022-08-30T04:26:00.167Z,16.50
2022-08-30T04:28:26.770Z,17.00
2022-08-30T04:30:53.728Z,16.00
2022-08-30T04:33:21.156Z,13.75
2022-08-30T04:35:49.561Z,14.25
2022-08-30T04:38:17.706Z,17.75
2022-08-30T04:40:47.365Z,18.25
2022-08-30T04:43:14.459Z,16.00
2022-08-30T04:45:41.872Z,16.50
2022-08-30T04:48:09.053Z,13.00
2022-08-30T04:50:36.110Z,15.25
2022-08-30T04:53:02.734Z,17.50
2022-08-30T04:55:29.415Z,17.25
2022-08-30T04:57:56.629Z,17.25
2022-08-30T05:00:23.329Z,15.25
2022-08-30T05:02:50.089Z,16.50
2022-08-30T05:05:36.155Z,15.75
2022-08-30T05:08:03.075Z,16.00
2022-08-30T05:10:29.832Z,16.50
2022-08-30T05:12:56.653Z,21.50
2022-08-30T05:15:23.990Z,16.50
2022-08-30T05:17:50.959Z,16.25
2022-08-30T05:20:18.031Z,14.00
2022-08-30T05:22:54.013Z,12.50
2022-08-30T05:25:24.359Z,15.00
2022-08-30T05:27:51.462Z,11.75
2022-08-30T05:30:19.153Z,14.25
2022-08-30T05:32:46.473Z,16.50
2022-08-30T05:35:14.764Z,11.50
2022-08-30T05:37:41.748Z,14.00
2022-08-30T05:40:10.206Z,10.50
2022-08-30T05:42:41.421Z,12.25
2022-08-30T05:45:09.845Z,11.25
2022-08-30T05:47:37.726Z,11.50
2022-08-30T05:50:05.072Z,10.50
2022-08-30T05:52:31.795Z,14.50
2022-08-30T05:54:59.627Z,9.00
2022-08-30T05:57:26.897Z,9.50
2022-08-30T05:59:53.556Z,10.25
2022-08-30T06:02:20.251Z,12.00
2022-08-30T06:04:46.953Z,11.50
2022-08-30T06:07:15.757Z,10.25
2022-08-30T06:09:44.543Z,10.00
2022-08-30T06:12:11.210Z,12.25
2022-08-30T06:14:39.580Z,13.25
2022-08-30T06:17:07.108Z,14.50
2022-08-30T06:19:33.848Z,14.00
2022-08-30T06:22:01.008Z,12.75
2022-08-30T06:24:41.045Z,10.50
2022-08-30T06:27:15.492Z,10.50
2022-08-30T06:29:42.154Z,11.50
2022-08-30T06:32:08.805Z,14.00
2022-08-30T06:34:35.465Z,13.00
2022-08-30T06:37:02.131Z,10.25
2022-08-30T06:39:28.744Z,12.25
2022-08-30T06:41:55.768Z,11.25
2022-08-30T06:44:22.403Z,10.25
2022-08-30T06:46:49.129Z,14.00
2022-08-30T06:49:15.851Z,12.75
2022-08-30T06:51:42.533Z,16.50
2022-08-30T06:54:11.997Z,12.75
2022-08-30T06:56:40.414Z,11.50
2022-08-30T06:59:09.900Z,11.75
2022-08-30T07:01:36.621Z,12.75
2022-08-30T07:04:06.595Z,13.00
2022-08-30T07:06:34.012Z,12.00
2022-08-30T07:09:00.696Z,11.75
2022-08-30T07:11:35.048Z,10.25
2022-08-30T07:14:02.262Z,10.00
2022-08-30T07:16:29.425Z,9.00
2022-08-30T07:18:58.833Z,9.25
2022-08-30T07:21:32.408Z,6.75
2022-08-30T07:23:59.732Z,7.50
2022-08-30T07:26:35.031Z,7.25
2022-08-30T07:29:02.856Z,8.00
2022-08-30T07:31:30.097Z,9.25
2022-08-30T07:33:57.023Z,9.00
2022-08-30T07:36:24.507Z,4.00
2022-08-30T07:38:52.309Z,10.00
2022-08-30T07:41:25.588Z,13.75
2022-08-30T07:43:53.002Z,9.25
2022-08-30T07:46:21.113Z,9.50
2022-08-30T07:48:48.147Z,7.75
2022-08-30T07:51:22.456Z,11.25
2022-08-30T07:53:49.500Z,11.75
2022-08-30T07:56:17.010Z,12.25
2022-08-30T07:58:43.664Z,10.00
2022-08-30T08:01:12.775Z,8.50
2022-08-30T08:03:40.822Z,12.50
2022-08-30T08:06:09.889Z,10.75
2022-08-30T08:08:37.518Z,7.25
2022-08-30T08:11:16.239Z,8.00
2022-08-30T08:13:53.418Z,15.00
2022-08-30T08:16:25.901Z,9.50
2022-08-30T08:18:53.963Z,7.25
2022-08-30T08:21:22.029Z,11.25
2022-08-30T08:23:49.028Z,6.25
2022-08-30T08:26:15.689Z,7.25
2022-08-30T08:28:42.855Z,9.00
2022-08-30T08:31:21.557Z,7.00
2022-08-30T08:33:50.811Z,6.75
2022-08-30T08:36:18.626Z,7.00
2022-08-30T08:38:45.606Z,9.00
2022-08-30T08:41:34.009Z,11.25
2022-08-30T08:44:00.854Z,7.75
2022-08-30T08:46:45.608Z,6.50
2022-08-30T08:49:13.003Z,7.75
2022-08-30T08:51:59.969Z,5.50
2022-08-30T08:54:52.600Z,6.50
2022-08-30T08:57:22.702Z,7.00
2022-08-30T08:59:54.501Z,9.00
2022-08-30T09:02:34.132Z,7.25
2022-08-30T09:05:02.873Z,8.25
2022-08-30T09:07:38.204Z,7.75
2022-08-30T09:10:05.367Z,9.00
2022-08-30T09:12:32.086Z,8.50
2022-08-30T09:15:11.594Z,8.25
2022-08-30T09:17:54.208Z,7.50
2022-08-30T09:20:33.321Z,10.00
2022-08-30T09:23:22.376Z,9.50
2022-08-30T09:26:05.517Z,8.25
2022-08-30T09:28:38.650Z,6.00
2022-08-30T09:31:20.453Z,9.25
2022-08-30T09:34:03.579Z,6.75
2022-08-30T09:36:41.636Z,6.75
2022-08-30T09:39:15.552Z,7.00
2022-08-30T09:41:45.384Z,10.75
2022-08-30T09:44:24.201Z,7.75
2022-08-30T09:47:00.126Z,7.75
2022-08-30T09:49:40.000Z,6.25
2022-08-30T09:52:09.636Z,8.25
2022-08-30T09:55:01.164Z,6.00
2022-08-30T09:57:52.714Z,6.00
2022-08-30T10:00:29.070Z,6.25
2022-08-30T10:06:34.011Z,7.25
2022-08-30T10:09:22.559Z,7.00
2022-08-30T10:12:15.626Z,9.25
2022-08-30T10:14:56.940Z,5.00
2022-08-30T10:17:39.260Z,6.00
2022-08-30T10:20:44.088Z,8.75
2022-08-30T10:23:21.552Z,7.00
2022-08-30T10:25:55.169Z,6.25
2022-08-30T10:28:50.277Z,8.25
2022-08-30T10:31:40.097Z,6.00
2022-08-30T10:34:14.527Z,8.75
2022-08-30T10:37:03.206Z,6.00
2022-08-30T10:39:37.374Z,7.00
2022-08-30T10:42:11.514Z,9.25
2022-08-30T10:44:44.484Z,10.00
2022-08-30T10:47:11.051Z,8.25
2022-08-30T10:49:41.992Z,9.00
2022-08-30T10:52:37.485Z,8.00
2022-08-30T10:55:16.016Z,10.25
2022-08-30T10:57:43.080Z,8.25
2022-08-30T11:00:14.833Z,8.00
2022-08-30T11:03:18.765Z,7.25
2022-08-30T11:05:56.248Z,13.25
2022-08-30T11:08:30.938Z,7.00
2022-08-30T11:11:26.291Z,9.00
2022-08-30T11:13:57.230Z,7.50
2022-08-30T11:16:37.016Z,6.50
2022-08-30T11:19:12.284Z,9.50
2022-08-30T11:21:41.104Z,8.00
2022-08-30T11:24:15.967Z,9.00
2022-08-30T11:26:45.735Z,8.00
2022-08-30T11:29:39.409Z,3.75
2022-08-30T11:32:12.215Z,8.25
2022-08-30T11:34:45.861Z,6.50
2022-08-30T11:37:31.294Z,6.25
2022-08-30T11:40:04.153Z,6.50
2022-08-30T11:42:32.977Z,6.25
2022-08-30T11:45:25.515Z,7.25
2022-08-30T11:48:04.500Z,8.00
2022-08-30T11:50:52.954Z,8.25
2022-08-30T11:53:32.784Z,7.75
2022-08-30T11:56:14.167Z,6.25
2022-08-30T11:58:54.925Z,7.25
2022-08-30T12:01:51.850Z,8.75
2022-08-30T12:04:28.555Z,13.00
2022-08-30T12:07:04.432Z,10.25
2022-08-30T12:09:33.055Z,8.75
2022-08-30T12:12:02.668Z,8.75
2022-08-30T12:14:51.756Z,7.00
2022-08-30T12:17:50.996Z,6.75
2022-08-30T12:20:37.642Z,7.25
2022-08-30T12:23:38.281Z,6.75
2022-08-30T12:26:26.658Z,8.25
2022-08-30T12:29:10.351Z,8.00
2022-08-30T12:31:55.650Z,7.00
2022-08-30T12:34:46.109Z,11.00
2022-08-30T12:37:34.264Z,12.00
2022-08-30T12:40:17.184Z,11.25
2022-08-30T12:42:52.172Z,11.50
2022-08-30T12:45:22.183Z,8.25
2022-08-30T12:47:53.704Z,9.00
2022-08-30T12:50:27.872Z,10.50
2022-08-30T12:53:09.347Z,8.00
2022-08-30T12:55:53.889Z,7.25
2022-08-30T12:58:36.680Z,9.00
2022-08-30T13:01:28.332Z,8.75
2022-08-30T13:04:16.739Z,11.75
2022-08-30T13:06:49.029Z,7.00
2022-08-30T13:09:44.734Z,7.75
2022-08-30T13:12:24.257Z,7.75
2022-08-30T13:14:55.644Z,7.50
2022-08-30T13:17:26.211Z,12.00
2022-08-30T13:20:18.943Z,10.25
2022-08-30T13:23:07.522Z,9.00
2022-08-30T13:25:38.357Z,10.00
2022-08-30T13:28:07.505Z,11.50
2022-08-30T13:30:34.896Z,10.25
2022-08-30T13:33:02.274Z,9.00
2022-08-30T13:35:30.891Z,8.50
2022-08-30T13:38:00.180Z,9.50
2022-08-30T13:40:27.193Z,11.25
2022-08-30T13:42:53.927Z,10.50
2022-08-30T13:48:07.847Z,10.50
2022-08-30T13:50:34.486Z,11.50
2022-08-30T13:53:01.210Z,9.25
2022-08-30T13:55:28.451Z,10.00
2022-08-30T13:57:56.497Z,9.50
2022-08-30T14:00:25.016Z,11.00
2022-08-30T14:02:59.793Z,12.50
2022-08-30T14:06:21.836Z,12.25
2022-08-30T14:08:45.951Z,11.00
2022-08-30T14:11:18.565Z,9.50
2022-08-30T14:16:33.684Z,13.25
2022-08-30T14:19:01.746Z,11.00
2022-08-30T14:21:28.837Z,10.75
2022-08-30T14:23:57.690Z,11.50
2022-08-30T14:26:32.350Z,10.00
2022-08-30T14:29:02.117Z,7.75
2022-08-30T14:31:32.869Z,10.50
2022-08-30T14:34:04.249Z,12.50
2022-08-30T14:36:33.550Z,6.75
2022-08-30T14:39:08.159Z,7.50
2022-08-30T14:41:43.434Z,7.75
2022-08-30T14:44:11.747Z,9.25
2022-08-30T14:46:38.519Z,7.00
2022-08-30T14:49:07.147Z,5.50
2022-08-30T14:51:36.958Z,7.75
2022-08-30T14:54:03.820Z,5.25
2022-08-30T14:56:31.494Z,7.00
2022-08-30T14:59:00.688Z,5.00
2022-08-30T15:01:28.486Z,7.00
2022-08-30T15:03:55.369Z,5.00
2022-08-30T15:06:22.894Z,6.00
2022-08-30T15:08:54.304Z,9.00
2022-08-30T15:11:22.957Z,9.75
2022-08-30T15:13:49.812Z,7.00
2022-08-30T15:16:28.992Z,5.00
2022-08-30T15:18:57.713Z,7.00
2022-08-30T15:21:27.314Z,5.00
2022-08-30T15:23:55.884Z,5.75
2022-08-30T15:26:23.049Z,6.50
2022-08-30T15:28:51.675Z,5.00
2022-08-30T15:31:24.076Z,7.50
2022-08-30T15:33:51.720Z,7.00
2022-08-30T15:36:18.613Z,8.25
2022-08-30T15:38:45.421Z,7.00
2022-08-30T15:41:13.091Z,6.50
2022-08-30T15:43:41.217Z,6.00
2022-08-30T15:46:17.055Z,8.50
2022-08-30T15:48:45.974Z,6.25
2022-08-30T15:51:13.660Z,4.75
2022-08-30T15:53:40.924Z,6.50
2022-08-30T15:56:07.584Z,5.00
2022-08-30T15:58:35.186Z,7.00
2022-08-30T16:01:02.320Z,7.00
2022-08-30T16:03:29.584Z,6.00
2022-08-30T16:05:57.208Z,7.00
2022-08-30T16:08:24.225Z,5.00
2022-08-30T16:10:52.570Z,6.25
2022-08-30T16:13:19.206Z,6.25
2022-08-30T16:15:46.031Z,6.75
2022-08-30T16:18:14.305Z,7.50
2022-08-30T16:20:42.193Z,7.75
2022-08-30T16:23:10.992Z,9.75
2022-08-30T16:25:40.850Z,7.50
2022-08-30T16:28:09.339Z,4.00
2022-08-30T16:30:36.930Z,6.00
2022-08-30T16:33:04.033Z,5.25
2022-08-30T16:35:32.801Z,6.00
2022-08-30T16:37:59.449Z,7.25
2022-08-30T16:40:26.121Z,8.50
2022-08-30T16:42:52.777Z,5.00
2022-08-30T16:45:20.821Z,7.00
2022-08-30T16:47:47.441Z,6.50
2022-08-30T16:50:16.764Z,5.00
2022-08-30T16:52:44.553Z,6.00
2022-08-30T16:55:11.330Z,4.25
2022-08-30T16:57:38.753Z,6.00
2022-08-30T17:00:13.370Z,7.25
2022-08-30T17:02:41.002Z,5.50
2022-08-30T17:05:21.889Z,6.00
2022-08-30T17:07:50.335Z,9.00
2022-08-30T17:10:20.920Z,7.00
2022-08-30T17:12:50.040Z,6.50
2022-08-30T17:15:20.016Z,9.00
2022-08-30T17:17:47.908Z,5.50
2022-08-30T17:20:15.661Z,7.25
2022-08-30T17:22:42.319Z,7.00
2022-08-30T17:25:13.302Z,6.00
2022-08-30T17:27:40.140Z,6.25
2022-08-30T17:30:08.606Z,7.00
2022-08-30T17:32:35.245Z,4.75
2022-08-30T17:35:02.182Z,5.00
2022-08-30T17:37:33.365Z,5.75
2022-08-30T17:40:00.570Z,7.00
2022-08-30T17:42:29.841Z,7.25
2022-08-30T17:44:56.646Z,6.00
2022-08-30T17:47:23.763Z,7.25
2022-08-30T17:49:51.173Z,6.25
2022-08-30T17:52:17.813Z,4.50
2022-08-30T17:54:44.435Z,5.00
2022-08-30T17:57:13.172Z,9.75
2022-08-30T17:59:40.758Z,7.00
2022-08-30T18:02:07.803Z,7.25
2022-08-30T18:04:38.866Z,7.25
2022-08-30T18:07:12.274Z,6.50
2022-08-30T18:09:40.212Z,5.75
2022-08-30T18:12:07.430Z,5.00
2022-08-30T18:14:34.112Z,7.00
2022-08-30T18:17:02.343Z,5.75
2022-08-30T18:19:30.423Z,6.00
2022-08-30T18:21:57.190Z,5.00
2022-08-30T18:24:24.817Z,4.00
2022-08-30T18:26:51.715Z,5.75
2022-08-30T18:29:26.345Z,6.50
2022-08-30T18:32:02.280Z,8.00
2022-08-30T18:34:29.821Z,5.25
2022-08-30T18:36:56.908Z,5.00
2022-08-30T18:39:23.867Z,6.25
2022-08-30T18:41:54.264Z,6.00
2022-08-30T18:44:28.169Z,5.50
2022-08-30T18:46:57.107Z,4.75
2022-08-30T18:49:25.368Z,7.25
2022-08-30T18:51:52.591Z,5.00
2022-08-30T18:54:19.896Z,4.75
2022-08-30T18:56:46.602Z,6.00
2022-08-30T18:59:13.395Z,5.00
2022-08-30T19:01:41.056Z,5.50
2022-08-30T19:04:08.042Z,5.00
2022-08-30T19:06:34.842Z,7.25
2022-08-30T19:09:09.066Z,5.50
2022-08-30T19:11:36.202Z,6.00
2022-08-30T19:14:05.671Z,7.25
2022-08-30T19:16:34.427Z,6.00
2022-08-30T19:19:05.887Z,5.25
2022-08-30T19:21:33.498Z,4.25
2022-08-30T19:24:00.229Z,5.50
2022-08-30T19:26:27.404Z,4.75
2022-08-30T19:28:54.425Z,8.00
2022-08-30T19:31:21.093Z,7.00
2022-08-30T19:33:47.701Z,7.25
2022-08-30T19:36:14.514Z,6.50
2022-08-30T19:38:44.355Z,10.00
2022-08-30T19:41:12.735Z,8.00
2022-08-30T19:43:40.131Z,14.50
2022-08-30T19:46:07.374Z,10.25
2022-08-30T19:48:39.026Z,13.25
2022-08-30T19:51:13.758Z,12.25
2022-08-30T19:53:41.255Z,13.75
2022-08-30T19:56:08.256Z,18.00
2022-08-30T19:58:34.953Z,9.00
2022-08-30T20:01:11.846Z,17.00
2022-08-30T20:03:40.195Z,13.00
2022-08-30T20:06:08.148Z,13.50
2022-08-30T20:08:36.078Z,15.50
2022-08-30T20:11:03.523Z,16.00
2022-08-30T20:13:30.308Z,13.75
2022-08-30T20:16:00.613Z,8.75
2022-08-30T20:18:27.330Z,12.25
2022-08-30T20:20:54.256Z,11.00
2022-08-30T20:23:23.763Z,12.00
2022-08-30T20:25:54.588Z,11.25
2022-08-30T20:28:21.828Z,11.00
2022-08-30T20:30:49.803Z,13.00
2022-08-30T20:33:17.337Z,13.25
2022-08-30T20:35:48.853Z,18.50
2022-08-30T20:38:25.350Z,13.00
2022-08-30T20:40:56.852Z,12.50
2022-08-30T20:43:26.031Z,14.50
2022-08-30T20:45:53.662Z,14.00
2022-08-30T20:48:20.600Z,16.25
2022-08-30T20:50:47.380Z,15.00
2022-08-30T20:53:14.253Z,15.25
2022-08-30T20:55:42.757Z,17.50
2022-08-30T20:58:09.740Z,14.25
2022-08-30T21:00:37.179Z,15.50
2022-08-30T21:03:06.701Z,13.50
2022-08-30T21:05:51.572Z,14.25
2022-08-30T21:08:18.674Z,15.25
2022-08-30T21:10:46.345Z,11.75
2022-08-30T21:13:12.969Z,13.75
2022-08-30T21:15:39.632Z,13.00
2022-08-30T21:18:06.673Z,14.00
2022-08-30T21:20:33.333Z,13.00
2022-08-30T21:23:00.364Z,13.50
2022-08-30T21:25:26.958Z,14.00
2022-08-30T21:27:54.960Z,16.25
2022-08-30T21:30:21.695Z,13.25
2022-08-30T21:32:48.326Z,13.50
2022-08-30T21:35:33.654Z,14.25
2022-08-30T21:38:00.376Z,8.50
2022-08-30T21:40:27.445Z,14.00
2022-08-30T21:42:54.169Z,19.25
2022-08-30T21:45:20.831Z,13.75
2022-08-30T21:47:47.497Z,13.25
2022-08-30T21:50:14.173Z,16.25
2022-08-30T21:52:40.819Z,13.50
2022-08-30T21:55:07.757Z,14.00
2022-08-30T21:57:34.404Z,15.75
2022-08-30T22:00:01.055Z,12.00
2022-08-30T22:02:29.169Z,13.00
2022-08-30T22:04:56.167Z,15.25
2022-08-30T22:07:22.785Z,13.50
2022-08-30T22:09:49.401Z,14.25
2022-08-30T22:12:16.553Z,11.25
2022-08-30T22:14:43.274Z,11.75
2022-08-30T22:17:10.146Z,13.75
2022-08-30T22:19:36.877Z,13.75
2022-08-30T22:22:03.530Z,13.25
2022-08-30T22:24:32.723Z,13.00
2022-08-30T22:27:01.116Z,15.50
2022-08-30T22:29:28.265Z,17.00
2022-08-30T22:31:54.927Z,19.25
2022-08-30T22:34:22.989Z,13.50
2022-08-30T22:36:49.657Z,17.25
2022-08-30T22:39:16.357Z,13.75
2022-08-30T22:41:44.278Z,14.75
2022-08-30T22:44:11.586Z,16.00
2022-08-30T22:46:39.949Z,16.75
2022-08-30T22:49:11.315Z,17.75
2022-08-30T22:51:39.741Z,17.00
2022-08-30T22:54:08.776Z,17.25
2022-08-30T22:56:37.817Z,17.00
2022-08-30T22:59:06.015Z,13.75
2022-08-30T23:01:38.958Z,16.25
2022-08-30T23:04:07.631Z,15.50
2022-08-30T23:06:34.640Z,17.25
2022-08-30T23:09:01.741Z,12.75
2022-08-30T23:11:28.747Z,15.00
2022-08-30T23:13:57.419Z,15.00
2022-08-30T23:16:24.686Z,12.75
2022-08-30T23:18:51.421Z,13.25
2022-08-30T23:21:23.946Z,11.25
2022-08-30T23:24:10.723Z,10.50
2022-08-30T23:26:57.209Z,11.00
2022-08-30T23:29:43.187Z,10.00
2022-08-30T23:32:28.811Z,12.00
2022-08-30T23:35:14.250Z,14.25
2022-08-30T23:37:59.767Z,14.00
2022-08-30T23:40:45.330Z,11.75
2022-08-30T23:43:30.750Z,11.50
2022-08-30T23:46:19.025Z,12.75
2022-08-30T23:49:06.436Z,11.00
2022-08-30T23:51:52.360Z,10.00
2022-08-30T23:54:37.594Z,10.00
2022-08-30T23:57:23.737Z,13.50
